EW6430 Weather Reports


time (UTC)temp
C
wind
direction
speed
KPH
gust
KPH
rain 1hr
cm
rain 24hr
cm
rain mn
cm
humidity
%
barometer
mb
20260903111545 22 317 3.2 9.7 0.00 0.00 0.00 62 1017.2
20260903111507 22 308 4.8 9.7 0.00 0.00 0.00 62 1017.5
20260903111003 22 309 4.8 9.7 0.00 0.00 0.00 63 1017.5
20260903110034 22 308 6.4 16.1 0.00 0.00 0.00 60 1017.3
20260903105448 22 319 3.2 9.7 0.00 0.00 0.00 60 1017.6
20260903104942 22 307 3.2 9.7 0.00 0.00 0.00 61 1017.6
20260903104610 22 331 0.0 8.0 0.00 0.00 0.00 63 1017.3
20260903104431 22 331 3.2 8.0 0.00 0.00 0.00 63 1017.7
20260903103922 22 245 3.2 8.0 0.00 0.00 0.00 63 1017.7
20260903103408 22 244 4.8 12.9 0.00 0.00 0.00 64 1017.7
20260903103044 21 240 3.2 12.9 0.00 0.00 0.00 64 1017.4
20260903102905 22 254 4.8 11.3 0.00 0.00 0.00 65 1017.7
20260903102359 22 200 3.2 11.3 0.00 0.00 0.00 63 1017.8
20260903101524 21 206 1.6 11.3 0.00 0.00 0.00 63 1017.5
20260903101336 22 206 3.2 11.3 0.00 0.00 0.00 62 1017.8
20260903100834 22 245 4.8 9.7 0.00 0.00 0.00 63 1017.8
20260903100320 22 229 6.4 14.5 0.00 0.00 0.00 63 1017.8
20260903100155 21 233 3.2 14.5 0.00 0.00 0.00 62 1017.6
20260903095813 22 244 6.4 14.5 0.00 0.00 0.00 63 1017.9
20260903095314 22 236 6.4 14.5 0.00 0.00 0.00 63 1017.9
20260903094803 22 219 4.8 12.9 0.00 0.00 0.00 63 1018.0
20260903094532 21 240 4.8 11.3 0.00 0.00 0.00 61 1017.8
20260903093744 22 204 4.8 11.3 0.00 0.00 0.00 63 1018.1
20260903093228 21 238 4.8 9.7 0.00 0.00 0.00 63 1018.1
20260903093007 21 242 1.6 9.7 0.00 0.00 0.00 63 1017.9
20260903092728 21 240 4.8 16.1 0.00 0.00 0.00 62 1018.2
20260903092218 21 237 4.8 16.1 0.00 0.00 0.00 62 1018.2
20260903091707 22 221 3.2 9.7 0.00 0.00 0.00 65 1018.2
20260903091553 21 259 3.2 8.0 0.00 0.00 0.00 65 1018.0
20260903091157 21 219 3.2 8.0 0.00 0.00 0.00 66 1018.5
20260903090643 21 317 3.2 8.0 0.00 0.00 0.00 65 1018.5
20260903090134 21 233 4.8 11.3 0.00 0.00 0.00 67 1018.5
20260903090054 20 233 0.0 11.3 0.00 0.00 0.00 66 1018.2
20260903085609 20 236 4.8 11.3 0.00 0.00 0.00 69 1018.6
20260903085056 20 235 4.8 9.7 0.00 0.00 0.00 68 1018.5
20260903084545 20 225 4.8 11.3 0.00 0.00 0.00 67 1018.5
20260903084521 20 225 3.2 11.3 0.00 0.00 0.00 67 1018.1
20260903084033 20 237 3.2 11.3 0.00 0.00 0.00 67 1018.5
20260903083523 20 227 3.2 6.4 0.00 0.00 0.00 70 1018.5
20260903083042 20 213 1.6 8.0 0.00 0.00 0.00 70 1018.2
20260903083005 20 229 4.8 8.0 0.00 0.00 0.00 71 1018.6
20260903082456 20 229 4.8 8.0 0.00 0.00 0.00 72 1018.6
20260903081508 20 234 3.2 6.4 0.00 0.00 0.00 75 1018.2
20260903081431 20 226 3.2 8.0 0.00 0.00 0.00 75 1018.6
20260903080919 19 228 3.2 8.0 0.00 0.00 0.00 75 1018.6
20260903080405 19 216 3.2 8.0 0.00 0.00 0.00 76 1018.6
20260903080033 19 230 3.2 8.0 0.00 0.00 0.00 77 1018.2
20260903075852 19 238 3.2 8.0 0.00 0.00 0.00 77 1018.6
20260903075338 19 240 4.8 8.0 0.00 0.00 0.00 78 1018.6
20260903074825 18 240 4.8 8.0 0.00 0.00 0.00 79 1018.6
20260903074554 18 242 3.2 8.0 0.00 0.00 0.00 80 1018.2
20260903073801 18 238 4.8 8.0 0.00 0.00 0.00 81 1018.6
20260903073246 18 244 3.2 11.3 0.00 0.00 0.00 82 1018.6
20260903073019 18 244 3.2 11.3 0.00 0.00 0.00 81 1018.2
20260903072736 18 244 1.6 11.3 0.00 0.00 0.00 83 1018.6
20260903072226 18 246 1.6 8.0 0.00 0.00 0.00 85 1018.6
20260903071714 17 246 3.2 8.0 0.00 0.00 0.00 84 1018.6
20260903071548 17 246 3.2 8.0 0.00 0.00 0.00 83 1018.3
20260903071200 17 257 3.2 9.7 0.00 0.00 0.00 83 1018.6
20260903070646 18 257 3.2 9.7 0.00 0.00 0.00 82 1018.6
20260903070003 18 297 1.6 4.8 0.00 0.00 0.00 84 1018.2
20260903065617 18 302 1.6 4.8 0.00 0.00 0.00 84 1018.5
20260903065101 18 302 1.6 4.8 0.00 0.00 0.00 87 1018.5
20260903064624 17 269 0.0 4.8 0.00 0.00 0.00 89 1018.2
20260903064600 17 269 1.6 4.8 0.00 0.00 0.00 89 1018.5
20260903064035 17 269 1.6 4.8 0.00 0.00 0.00 89 1018.5
20260903063521 17 269 1.6 3.2 0.00 0.00 0.00 93 1018.6
20260903063043 16 269 0.0 4.8 0.00 0.00 0.00 94 1018.3
20260903063006 16 269 1.6 4.8 0.00 0.00 0.00 94 1018.6
20260903062451 16 269 1.6 4.8 0.00 0.00 0.00 94 1018.5
20260903061600 15 269 1.6 6.4 0.00 0.00 0.00 96 1018.3
20260903061420 15 269 3.2 6.4 0.00 0.00 0.00 96 1018.7
20260903060018 14 283 1.6 4.8 0.00 0.00 0.00 97 1018.5
20260903055837 15 283 1.6 4.8 0.00 0.00 0.00 97 1018.8
20260903055324 15 284 0.0 3.2 0.00 0.00 0.00 98 1018.8
20260903054808 14 284 0.0 0.0 0.00 0.00 0.00 97 1018.8
20260903054538 13 284 0.0 0.0 0.00 0.00 0.00 97 1018.6
20260903054255 13 284 0.0 0.0 0.00 0.00 0.00 97 1018.8
20260903053739 13 284 0.0 0.0 0.00 0.00 0.00 97 1018.7
20260903053225 13 284 0.0 0.0 0.00 0.00 0.00 97 1018.7
20260903053057 12 284 0.0 0.0 0.00 0.00 0.00 97 1018.4
20260903052708 12 284 0.0 0.0 0.00 0.00 0.00 97 1018.8
20260903052155 12 284 0.0 0.0 0.00 0.00 0.00 97 1018.8
20260903051639 12 284 0.0 0.0 0.00 0.00 0.00 97 1018.8
20260903051615 12 284 0.0 0.0 0.00 0.00 0.00 97 1018.5
20260903051140 12 284 0.0 0.0 0.00 0.00 0.00 97 1018.8
20260903050610 12 284 0.0 0.0 0.00 0.00 0.00 97 1018.7
20260903050111 12 284 0.0 0.0 0.00 0.00 0.00 97 1018.6
20260903050032 12 284 0.0 0.0 0.00 0.00 0.00 97 1018.3
20260903045544 12 284 0.0 0.0 0.00 0.00 0.00 97 1018.3
20260903045026 12 284 1.6 4.8 0.00 0.00 0.00 97 1018.2
20260903044549 12 284 0.0 4.8 0.00 0.00 0.00 97 1018.0
20260903044511 12 284 1.6 4.8 0.00 0.00 0.00 97 1018.3
20260903044001 12 284 0.0 3.2 0.00 0.00 0.00 96 1018.2
20260903043012 12 284 1.6 3.2 0.00 0.00 0.00 96 1017.9
20260903042934 12 284 1.6 3.2 0.00 0.00 0.00 96 1018.2
20260903042418 12 284 0.0 0.0 0.00 0.00 0.00 96 1018.2
20260903041906 12 284 0.0 0.0 0.00 0.00 0.00 96 1018.2
20260903041535 12 284 0.0 0.0 0.00 0.00 0.00 96 1017.9
20260903041351 12 284 0.0 0.0 0.00 0.00 0.00 96 1018.2
20260903040836 12 284 0.0 0.0 0.00 0.00 0.00 96 1018.2
20260903040110 12 284 0.0 0.0 0.00 0.00 0.00 96 1018.0
20260903035315 12 284 0.0 0.0 0.00 0.00 0.00 96 1018.1
20260903034803 12 284 0.0 0.0 0.00 0.00 0.00 95 1018.1
20260903034634 12 284 0.0 0.0 0.00 0.00 0.00 95 1017.8
20260903033737 12 284 0.0 0.0 0.00 0.00 0.00 95 1018.0
20260903033231 12 284 0.0 0.0 0.00 0.00 0.00 95 1018.0
20260903033101 12 284 0.0 0.0 0.00 0.00 0.00 95 1017.7
20260903032717 12 284 0.0 0.0 0.00 0.00 0.00 95 1017.9
20260903032210 12 284 0.0 0.0 0.00 0.00 0.00 95 1018.0
20260903031658 12 284 0.0 0.0 0.00 0.00 0.00 95 1018.0
20260903031635 12 284 0.0 0.0 0.00 0.00 0.00 95 1017.8
20260903031149 12 284 0.0 0.0 0.00 0.00 0.00 95 1018.0
20260903030645 13 284 0.0 3.2 0.00 0.00 0.00 95 1018.1
20260903030140 13 284 1.6 3.2 0.00 0.00 0.00 95 1018.1
20260903030013 13 284 0.0 3.2 0.00 0.00 0.00 95 1017.9
20260903025122 13 284 0.0 0.0 0.00 0.00 0.00 95 1018.2
20260903024614 13 284 0.0 0.0 0.00 0.00 0.00 95 1018.2
20260903024548 13 284 0.0 0.0 0.00 0.00 0.00 95 1018.0
20260903024102 13 284 0.0 0.0 0.00 0.00 0.00 95 1018.3
20260903023551 13 284 0.0 1.6 0.00 0.00 0.00 95 1018.2
20260903023020 13 284 0.0 0.0 0.00 0.00 0.00 95 1018.1
20260903022532 13 284 0.0 3.2 0.00 0.00 0.00 95 1018.2
20260903022017 14 284 1.6 4.8 0.00 0.00 0.00 95 1018.2
20260903021546 13 284 1.6 4.8 0.00 0.00 0.00 95 1018.1
20260903020957 14 284 0.0 3.2 0.00 0.00 0.00 95 1018.3
20260903020502 14 284 0.0 3.2 0.00 0.00 0.00 95 1018.3
20260903020033 13 284 0.0 3.2 0.00 0.00 0.00 96 1018.1
20260903015939 14 284 1.6 3.2 0.00 0.00 0.00 96 1018.3
20260903015429 14 284 1.6 4.8 0.00 0.00 0.00 95 1018.3
20260903014929 14 284 0.0 3.2 0.00 0.00 0.00 95 1018.3
20260903014558 13 284 0.0 0.0 0.00 0.00 0.00 95 1018.1
20260903014416 14 284 0.0 0.0 0.00 0.00 0.00 95 1018.3
20260903013906 14 284 0.0 0.0 0.00 0.00 0.00 95 1018.2
20260903013352 14 284 0.0 0.0 0.00 0.00 0.00 95 1018.3
20260903013020 13 284 0.0 0.0 0.00 0.00 0.00 96 1018.0
20260903012840 14 284 0.0 0.0 0.00 0.00 0.00 96 1018.1
20260903012328 14 284 0.0 0.0 0.00 0.00 0.00 96 1018.0
20260903011819 14 284 0.0 0.0 0.00 0.00 0.00 96 1017.9
20260903011656 13 284 0.0 0.0 0.00 0.00 0.00 96 1017.7
20260903011308 14 284 0.0 0.0 0.00 0.00 0.00 96 1017.9
20260903010257 14 284 1.6 3.2 0.00 0.00 0.00 96 1018.1
20260903010025 13 284 0.0 3.2 0.00 0.00 0.00 96 1017.9
20260903005743 14 284 0.0 3.2 0.00 0.00 0.00 96 1018.2
20260903005225 14 284 0.0 4.8 0.00 0.00 0.00 96 1018.3
20260903004558 13 284 0.0 4.8 0.00 0.00 0.00 96 1018.1
20260903004203 13 284 1.6 4.8 0.00 0.00 0.00 96 1018.5
20260903003658 13 309 1.6 4.8 0.00 0.00 0.00 96 1018.6
20260903003146 13 309 0.0 3.2 0.00 0.00 0.00 95 1018.2
20260903003019 13 309 0.0 1.6 0.00 0.00 0.00 95 1018.2
20260903002120 13 309 0.0 0.0 0.00 0.00 0.00 95 1018.1
20260903001608 13 309 0.0 0.0 0.00 0.00 0.00 95 1018.2
20260903001542 13 309 0.0 0.0 0.00 0.00 0.00 95 1018.1
20260903000544 13 309 0.0 1.6 0.00 0.00 0.00 95 1018.2
20260903000028 13 309 0.0 1.6 0.00 0.00 0.00 95 1018.2
20260903000003 13 309 0.0 1.6 0.00 0.00 0.00 95 1018.0
20260902235515 13 309 0.0 1.6 0.00 0.00 0.00 95 1018.3
20260902235006 13 309 0.0 1.6 0.00 0.00 0.00 95 1018.2
20260902234528 13 309 0.0 0.0 0.00 0.00 0.00 95 1018.0
20260902234449 13 309 0.0 0.0 0.00 0.00 0.00 95 1018.2
20260902233938 13 309 0.0 1.6 0.00 0.00 0.00 95 1018.2
20260902233423 13 309 0.0 1.6 0.00 0.00 0.00 95 1018.3
20260902233101 13 309 0.0 1.6 0.00 0.00 0.00 95 1018.2
20260902232912 13 309 0.0 1.6 0.00 0.00 0.00 95 1018.5
20260902232358 13 309 0.0 1.6 0.00 0.00 0.00 94 1018.5
20260902231842 14 309 0.0 1.6 0.00 0.00 0.00 94 1018.3
20260902231511 13 309 0.0 1.6 0.00 0.00 0.00 95 1018.2
20260902231332 14 309 0.0 1.6 0.00 0.00 0.00 95 1018.3
20260902230314 14 309 1.6 4.8 0.00 0.00 0.00 95 1018.5
20260902230036 13 309 0.0 4.8 0.00 0.00 0.00 95 1018.2
20260902225751 14 309 1.6 4.8 0.00 0.00 0.00 95 1018.3
20260902225253 14 309 0.0 3.2 0.00 0.00 0.00 95 1018.6
20260902224725 14 309 1.6 4.8 0.00 0.00 0.00 95 1018.5
20260902224213 14 309 1.6 4.8 0.00 0.00 0.00 95 1018.6
20260902223657 14 309 1.6 3.2 0.00 0.00 0.00 95 1018.5
20260902223143 14 309 0.0 3.2 0.00 0.00 0.00 94 1018.5
20260902223037 13 309 1.6 3.2 0.00 0.00 0.00 94 1018.3
20260902222636 13 309 0.0 0.0 0.00 0.00 0.00 94 1018.3
20260902222121 13 309 0.0 0.0 0.00 0.00 0.00 94 1018.2
20260902221607 13 309 0.0 0.0 0.00 0.00 0.00 94 1018.2
20260902221541 13 309 0.0 0.0 0.00 0.00 0.00 94 1018.0
20260902221051 13 309 0.0 0.0 0.00 0.00 0.00 94 1018.3
20260902220537 14 309 0.0 0.0 0.00 0.00 0.00 94 1018.3
20260902220027 14 309 0.0 0.0 0.00 0.00 0.00 93 1018.2
20260902220004 13 309 0.0 0.0 0.00 0.00 0.00 93 1018.1
20260902215514 14 309 0.0 0.0 0.00 0.00 0.00 93 1018.3
20260902214959 14 309 0.0 0.0 0.00 0.00 0.00 93 1018.3
20260902214522 14 309 0.0 0.0 0.00 0.00 0.00 93 1018.1
20260902213930 14 309 0.0 0.0 0.00 0.00 0.00 93 1018.2
20260902213038 14 309 0.0 0.0 0.00 0.00 0.00 93 1018.0
20260902212857 14 309 0.0 0.0 0.00 0.00 0.00 93 1018.2
20260902211829 15 309 0.0 0.0 0.00 0.00 0.00 93 1018.1
20260902211602 14 309 0.0 0.0 0.00 0.00 0.00 93 1017.9
20260902211317 15 309 0.0 0.0 0.00 0.00 0.00 92 1018.1
20260902210817 15 309 0.0 0.0 0.00 0.00 0.00 92 1018.2
20260902210303 15 309 0.0 0.0 0.00 0.00 0.00 92 1018.1
20260902210031 14 309 0.0 0.0 0.00 0.00 0.00 92 1017.9
20260902205751 15 309 0.0 0.0 0.00 0.00 0.00 92 1018.1
20260902205233 15 309 0.0 0.0 0.00 0.00 0.00 92 1018.1
20260902204721 15 309 0.0 0.0 0.00 0.00 0.00 92 1018.1
20260902204633 15 309 0.0 0.0 0.00 0.00 0.00 92 1018.0
20260902204204 15 309 0.0 0.0 0.00 0.00 0.00 91 1018.1
20260902203650 15 309 0.0 0.0 0.00 0.00 0.00 91 1018.2
20260902203139 15 309 0.0 1.6 0.00 0.00 0.00 91 1018.2
20260902203012 15 309 0.0 1.6 0.00 0.00 0.00 91 1018.1
20260902202108 15 309 0.0 0.0 0.00 0.00 0.00 91 1018.2
20260902201555 15 309 0.0 0.0 0.00 0.00 0.00 90 1018.2
20260902201528 15 309 0.0 0.0 0.00 0.00 0.00 90 1018.0
20260902201030 15 309 0.0 0.0 0.00 0.00 0.00 90 1018.2
20260902200050 15 309 0.0 0.0 0.00 0.00 0.00 89 1017.9
20260902200005 15 309 0.0 0.0 0.00 0.00 0.00 89 1018.1
20260902195500 15 309 0.0 0.0 0.00 0.00 0.00 89 1018.1
20260902194525 15 309 0.0 0.0 0.00 0.00 0.00 89 1017.9
20260902194445 15 309 0.0 0.0 0.00 0.00 0.00 89 1018.2
20260902193931 15 309 0.0 0.0 0.00 0.00 0.00 89 1018.2
20260902193418 16 309 0.0 0.0 0.00 0.00 0.00 88 1018.2
20260902193044 15 309 0.0 0.0 0.00 0.00 0.00 88 1018.1
20260902192904 16 309 0.0 0.0 0.00 0.00 0.00 88 1018.3
20260902192355 16 309 0.0 1.6 0.00 0.00 0.00 88 1018.3
20260902191840 16 309 0.0 1.6 0.00 0.00 0.00 88 1018.3
20260902191508 16 309 0.0 1.6 0.00 0.00 0.00 88 1018.2
20260902191327 16 309 0.0 0.0 0.00 0.00 0.00 88 1018.3
20260902190812 16 309 0.0 0.0 0.00 0.00 0.00 87 1018.3
20260902190257 16 309 0.0 0.0 0.00 0.00 0.00 87 1018.3
20260902190024 16 309 0.0 0.0 0.00 0.00 0.00 87 1018.1
20260902185741 16 309 0.0 1.6 0.00 0.00 0.00 87 1018.2
20260902185224 16 309 0.0 1.6 0.00 0.00 0.00 87 1018.2
20260902184715 16 309 0.0 1.6 0.00 0.00 0.00 86 1018.3
20260902184543 16 309 0.0 1.6 0.00 0.00 0.00 86 1018.1
20260902184159 16 309 0.0 1.6 0.00 0.00 0.00 86 1018.3
20260902183027 16 309 0.0 0.0 0.00 0.00 0.00 85 1018.1
20260902182625 17 309 0.0 0.0 0.00 0.00 0.00 85 1018.1
20260902182115 17 309 0.0 1.6 0.00 0.00 0.00 84 1018.1
20260902181608 17 309 0.0 0.0 0.00 0.00 0.00 84 1018.1
20260902181542 17 309 0.0 1.6 0.00 0.00 0.00 84 1017.9
20260902180116 17 309 0.0 0.0 0.00 0.00 0.00 82 1017.9
20260902175535 18 309 0.0 0.0 0.00 0.00 0.00 81 1018.1
20260902175030 18 309 0.0 0.0 0.00 0.00 0.00 81 1018.1
20260902174603 18 309 0.0 0.0 0.00 0.00 0.00 80 1017.9
20260902174014 19 309 0.0 0.0 0.00 0.00 0.00 79 1018.1
20260902173458 19 309 0.0 0.0 0.00 0.00 0.00 78 1018.1
20260902173046 19 309 0.0 1.6 0.00 0.00 0.00 77 1017.7
20260902172441 20 309 0.0 1.6 0.00 0.00 0.00 76 1017.9
20260902171933 20 309 0.0 3.2 0.00 0.00 0.00 75 1017.9
20260902171504 20 309 0.0 3.2 0.00 0.00 0.00 74 1017.7
20260902171424 21 309 0.0 3.2 0.00 0.00 0.00 74 1017.9
20260902170904 21 309 0.0 1.6 0.00 0.00 0.00 73 1017.8
20260902170405 21 309 0.0 1.6 0.00 0.00 0.00 71 1017.8
20260902170047 21 309 0.0 3.2 0.00 0.00 0.00 69 1017.6
20260902165359 22 309 1.6 4.8 0.00 0.00 0.00 67 1017.8
20260902164900 22 309 1.6 4.8 0.00 0.00 0.00 65 1017.8
20260902164531 22 309 1.6 4.8 0.00 0.00 0.00 65 1017.5
20260902164347 22 309 1.6 4.8 0.00 0.00 0.00 65 1017.7
20260902163836 22 309 1.6 6.4 0.00 0.00 0.00 66 1017.8
20260902163320 22 309 1.6 6.4 0.00 0.00 0.00 65 1017.7
20260902163103 22 309 1.6 6.4 0.00 0.00 0.00 64 1017.6
20260902162822 22 311 1.6 6.4 0.00 0.00 0.00 65 1017.8
20260902162313 22 311 1.6 8.0 0.00 0.00 0.00 64 1017.7
20260902161800 22 311 1.6 8.0 0.00 0.00 0.00 63 1017.7
20260902161531 22 300 0.0 4.8 0.00 0.00 0.00 62 1017.6
20260902161249 22 300 1.6 4.8 0.00 0.00 0.00 62 1017.8
20260902160740 23 300 1.6 3.2 0.00 0.00 0.00 61 1017.8
20260902160239 23 300 1.6 3.2 0.00 0.00 0.00 60 1017.8
20260902160010 23 300 0.0 3.2 0.00 0.00 0.00 61 1017.6
20260902155727 23 300 0.0 3.2 0.00 0.00 0.00 60 1017.9
20260902155215 23 300 0.0 4.8 0.00 0.00 0.00 60 1017.9
20260902154709 23 300 1.6 4.8 0.00 0.00 0.00 58 1017.9
20260902154541 23 300 0.0 4.8 0.00 0.00 0.00 58 1017.7
20260902154156 23 300 1.6 4.8 0.00 0.00 0.00 58 1017.9
20260902153648 23 299 1.6 6.4 0.00 0.00 0.00 58 1017.9
20260902153137 23 299 1.6 6.4 0.00 0.00 0.00 57 1017.9
20260902153011 23 299 1.6 6.4 0.00 0.00 0.00 57 1017.7
20260902152625 24 299 1.6 6.4 0.00 0.00 0.00 56 1017.9
20260902151557 24 282 1.6 6.4 0.00 0.00 0.00 57 1017.9
20260902151536 23 282 0.0 6.4 0.00 0.00 0.00 57 1017.7
20260902150533 24 290 3.2 8.0 0.00 0.00 0.00 55 1017.9
20260902150024 23 317 4.8 12.9 0.00 0.00 0.00 54 1018.0
20260902145012 24 238 3.2 11.3 0.00 0.00 0.00 56 1018.0
20260902144537 24 238 3.2 9.7 0.00 0.00 0.00 55 1017.8
20260902144501 24 349 3.2 6.4 0.00 0.00 0.00 55 1018.0
20260902143437 24 302 3.2 11.3 0.00 0.00 0.00 56 1018.1
20260902143105 23 230 1.6 6.4 0.00 0.00 0.00 57 1017.8
20260902142925 24 238 1.6 6.4 0.00 0.00 0.00 57 1018.2
20260902142409 23 227 3.2 8.0 0.00 0.00 0.00 57 1018.2
20260902141849 23 227 6.4 8.0 0.00 0.00 0.00 56 1018.2
20260902141519 23 215 4.8 12.9 0.00 0.00 0.00 56 1018.0
20260902141341 24 243 4.8 12.9 0.00 0.00 0.00 56 1018.2
20260902140830 24 216 6.4 11.3 0.00 0.00 0.00 56 1018.2
20260902140319 24 227 4.8 11.3 0.00 0.00 0.00 54 1018.2
20260902140053 24 183 8.0 11.3 0.00 0.00 0.00 53 1018.1
20260902135807 24 206 4.8 9.7 0.00 0.00 0.00 55 1018.3
20260902135254 24 244 6.4 14.5 0.00 0.00 0.00 55 1018.3
20260902134734 24 241 4.8 14.5 0.00 0.00 0.00 54 1018.5
20260902134502 23 236 3.2 11.3 0.00 0.00 0.00 55 1018.2
20260902134218 23 164 4.8 12.9 0.00 0.00 0.00 56 1018.5
20260902133707 24 126 4.8 11.3 0.00 0.00 0.00 53 1018.5
20260902133152 24 229 4.8 11.3 0.00 0.00 0.00 52 1018.5
20260902133028 23 211 4.8 11.3 0.00 0.00 0.00 52 1018.3
20260902132642 24 327 6.4 12.9 0.00 0.00 0.00 52 1018.6
20260902132129 24 223 4.8 12.9 0.00 0.00 0.00 54 1018.7
20260902131614 24 252 4.8 12.9 0.00 0.00 0.00 55 1018.7
20260902131549 23 212 3.2 12.9 0.00 0.00 0.00 55 1018.4
20260902131102 24 186 4.8 12.9 0.00 0.00 0.00 53 1018.6
20260902130547 24 242 4.8 12.9 0.00 0.00 0.00 55 1018.7
20260902130035 23 254 4.8 11.3 0.00 0.00 0.00 55 1018.7
20260902130009 23 254 3.2 11.3 0.00 0.00 0.00 55 1018.5
20260902124957 23 230 6.4 17.7 0.00 0.00 0.00 53 1018.7
20260902124523 23 239 4.8 12.9 0.00 0.00 0.00 55 1018.6
20260902124446 23 242 4.8 11.3 0.00 0.00 0.00 55 1018.8
20260902123929 23 256 3.2 11.3 0.00 0.00 0.00 56 1019.0
20260902123416 23 244 4.8 11.3 0.00 0.00 0.00 57 1018.9
20260902123043 22 284 1.6 14.5 0.00 0.00 0.00 56 1018.7
20260902122903 23 233 6.4 16.1 0.00 0.00 0.00 55 1019.0
20260902122348 23 231 6.4 14.5 0.00 0.00 0.00 54 1019.0
20260902121832 23 226 8.0 22.5 0.00 0.00 0.00 55 1019.0
20260902121503 23 218 6.4 22.5 0.00 0.00 0.00 55 1018.9
20260902121320 23 241 8.0 22.5 0.00 0.00 0.00 57 1019.1
20260902120816 23 201 4.8 14.5 0.00 0.00 0.00 55 1019.1
20260902120317 23 162 4.8 11.3 0.00 0.00 0.00 60 1019.1
20260902120049 23 333 4.8 11.3 0.00 0.00 0.00 59 1018.9
20260902115802 23 223 6.4 16.1 0.00 0.00 0.00 59 1019.2
20260902115248 23 247 8.0 16.1 0.00 0.00 0.00 58 1019.2
20260902114722 23 248 6.4 12.9 0.00 0.00 0.00 58 1019.3
20260902114657 23 232 8.0 12.9 0.00 0.00 0.00 58 1019.1
20260902114209 23 209 4.8 12.9 0.00 0.00 0.00 58 1019.3
20260902113139 23 243 3.2 12.9 0.00 0.00 0.00 62 1019.3
20260902113012 22 279 1.6 12.9 0.00 0.00 0.00 62 1019.2
20260902112626 23 318 4.8 11.3 0.00 0.00 0.00 61 1019.4